createdAt,value
2023-03-17T00:01:12.133Z,33.20
2023-03-17T00:03:41.885Z,29.90
2023-03-17T00:06:17.034Z,30.50
2023-03-17T00:08:46.363Z,29.40
2023-03-17T00:11:16.136Z,30.90
2023-03-17T00:13:44.710Z,30.60
2023-03-17T00:16:19.255Z,30.00
2023-03-17T00:18:47.192Z,29.70
2023-03-17T00:21:16.533Z,31.20
2023-03-17T00:23:47.997Z,31.10
2023-03-17T00:26:15.378Z,29.30
2023-03-17T00:28:43.150Z,30.40
2023-03-17T00:31:16.854Z,30.20
2023-03-17T00:33:46.691Z,31.50
2023-03-17T00:36:30.771Z,31.80
2023-03-17T00:38:58.427Z,27.60
2023-03-17T00:41:25.710Z,29.40
2023-03-17T00:43:52.727Z,28.70
2023-03-17T00:46:25.671Z,30.90
2023-03-17T00:48:52.869Z,32.50
2023-03-17T00:51:19.706Z,31.40
2023-03-17T00:53:47.965Z,29.40
2023-03-17T00:56:17.614Z,30.80
2023-03-17T00:58:45.669Z,28.10
2023-03-17T01:01:12.555Z,29.20
2023-03-17T01:03:40.320Z,28.40
2023-03-17T01:06:11.517Z,28.30
2023-03-17T01:08:40.666Z,29.40
2023-03-17T01:11:15.168Z,32.10
2023-03-17T01:13:41.938Z,35.30
2023-03-17T01:16:11.343Z,31.30
2023-03-17T01:18:38.762Z,29.60
2023-03-17T01:21:06.711Z,30.00
2023-03-17T01:23:34.008Z,30.60
2023-03-17T01:26:00.849Z,30.40
2023-03-17T01:28:28.313Z,30.00
2023-03-17T01:30:55.581Z,27.90
2023-03-17T01:33:22.343Z,27.50
2023-03-17T01:35:50.573Z,27.60
2023-03-17T01:38:17.786Z,27.50
2023-03-17T01:40:49.588Z,25.70
2023-03-17T01:43:22.578Z,27.70
2023-03-17T01:46:21.189Z,26.40
2023-03-17T01:48:53.108Z,24.70
2023-03-17T01:51:32.459Z,24.90
2023-03-17T01:54:03.630Z,25.00
2023-03-17T01:56:31.541Z,25.70
2023-03-17T01:59:04.075Z,31.90
2023-03-17T02:01:37.895Z,40.90
2023-03-17T02:06:34.905Z,25.50
2023-03-17T02:09:02.754Z,29.10
2023-03-17T02:11:30.954Z,32.80
2023-03-17T02:13:57.782Z,36.80
2023-03-17T02:16:25.188Z,33.00
2023-03-17T02:18:52.793Z,29.60
2023-03-17T02:21:36.396Z,29.40
2023-03-17T02:24:07.965Z,35.30
2023-03-17T02:26:36.762Z,31.50
2023-03-17T02:29:04.223Z,27.50
2023-03-17T02:31:31.144Z,27.20
2023-03-17T02:33:57.914Z,25.00
2023-03-17T02:36:25.180Z,34.20
2023-03-17T02:38:52.977Z,27.30
2023-03-17T02:41:20.664Z,26.60
2023-03-17T02:43:47.867Z,28.70
2023-03-17T02:46:15.042Z,28.90
2023-03-17T02:48:42.907Z,28.20
2023-03-17T02:51:09.728Z,36.80
2023-03-17T02:53:36.767Z,45.30
2023-03-17T02:56:04.882Z,32.10
2023-03-17T02:58:31.681Z,26.80
2023-03-17T03:00:58.592Z,33.00
2023-03-17T03:03:25.857Z,30.40
2023-03-17T03:05:53.232Z,34.40
2023-03-17T03:08:20.785Z,34.20
2023-03-17T03:10:47.743Z,31.00
2023-03-17T03:13:14.557Z,32.80
2023-03-17T03:15:43.085Z,25.70
2023-03-17T03:18:10.036Z,24.70
2023-03-17T03:20:36.797Z,22.30
2023-03-17T03:23:04.098Z,23.30
2023-03-17T03:25:30.854Z,24.00
2023-03-17T03:27:57.589Z,26.20
2023-03-17T03:30:24.342Z,28.10
2023-03-17T03:32:51.796Z,25.00
2023-03-17T03:35:18.776Z,23.80
2023-03-17T03:37:45.504Z,23.30
2023-03-17T03:40:12.856Z,22.50
2023-03-17T03:42:39.596Z,23.40
2023-03-17T03:45:07.122Z,21.90
2023-03-17T03:47:34.284Z,26.00
2023-03-17T03:50:01.114Z,24.60
2023-03-17T03:52:28.067Z,25.20
2023-03-17T03:54:54.848Z,25.20
2023-03-17T03:57:21.587Z,26.40
2023-03-17T03:59:48.356Z,26.00
2023-03-17T04:02:17.330Z,25.90
2023-03-17T04:04:44.342Z,25.00
2023-03-17T04:07:12.165Z,26.60
2023-03-17T04:09:39.439Z,25.00
2023-03-17T04:12:07.058Z,24.50
2023-03-17T04:14:34.105Z,22.10
2023-03-17T04:17:01.768Z,23.80
2023-03-17T04:19:28.918Z,22.70
2023-03-17T04:21:56.215Z,22.60
2023-03-17T04:24:23.087Z,22.60
2023-03-17T04:27:06.318Z,21.50
2023-03-17T04:29:33.265Z,26.40
2023-03-17T04:32:00.102Z,19.80
2023-03-17T04:34:27.473Z,20.60
2023-03-17T04:36:54.292Z,20.40
2023-03-17T04:39:21.087Z,21.60
2023-03-17T04:41:47.857Z,22.10
2023-03-17T04:44:14.772Z,22.80
2023-03-17T04:46:42.037Z,23.10
2023-03-17T04:49:09.802Z,30.30
2023-03-17T04:51:36.997Z,29.60
2023-03-17T04:54:04.133Z,28.70
2023-03-17T04:56:32.097Z,28.40
2023-03-17T04:58:59.182Z,30.70
2023-03-17T05:01:26.547Z,32.90
2023-03-17T05:03:53.796Z,30.50
2023-03-17T05:06:20.536Z,37.50
2023-03-17T05:08:47.586Z,26.60
2023-03-17T05:11:15.414Z,27.40
2023-03-17T05:13:42.788Z,26.90
2023-03-17T05:16:10.503Z,16.70
2023-03-17T05:18:37.954Z,29.80
2023-03-17T05:21:06.373Z,34.40
2023-03-17T05:23:34.065Z,27.70
2023-03-17T05:26:00.926Z,30.10
2023-03-17T05:28:27.826Z,18.10
2023-03-17T05:30:55.229Z,21.70
2023-03-17T05:33:22.103Z,13.60
2023-03-17T05:35:48.967Z,29.10
2023-03-17T05:38:17.187Z,27.70
2023-03-17T05:40:44.553Z,26.90
2023-03-17T05:43:11.713Z,22.90
2023-03-17T05:45:39.309Z,20.70
2023-03-17T05:48:06.356Z,19.80
2023-03-17T05:50:33.752Z,18.90
2023-03-17T05:53:01.092Z,15.60
2023-03-17T05:55:27.860Z,17.50
2023-03-17T05:57:54.808Z,16.60
2023-03-17T06:00:21.914Z,20.10
2023-03-17T06:02:49.400Z,19.30
2023-03-17T06:05:16.358Z,20.10
2023-03-17T06:07:52.871Z,19.80
2023-03-17T06:10:22.012Z,22.20
2023-03-17T06:12:48.911Z,27.60
2023-03-17T06:15:17.131Z,23.60
2023-03-17T06:17:44.687Z,19.60
2023-03-17T06:20:12.326Z,25.70
2023-03-17T06:22:46.319Z,20.60
2023-03-17T06:25:19.141Z,16.60
2023-03-17T06:27:46.014Z,18.80
2023-03-17T06:30:13.348Z,21.20
2023-03-17T06:32:40.358Z,21.30
2023-03-17T06:35:07.658Z,20.20
2023-03-17T06:37:35.963Z,14.80
2023-03-17T06:40:06.391Z,13.90
2023-03-17T06:42:33.387Z,14.00
2023-03-17T06:45:00.284Z,13.40
2023-03-17T06:47:27.405Z,11.80
2023-03-17T06:49:54.340Z,17.00
2023-03-17T06:52:21.441Z,12.50
2023-03-17T06:54:48.558Z,11.80
2023-03-17T06:57:15.304Z,14.10
2023-03-17T06:59:42.055Z,13.20
2023-03-17T07:02:11.678Z,14.50
2023-03-17T07:04:38.720Z,10.80
2023-03-17T07:07:06.438Z,11.10
2023-03-17T07:09:34.514Z,10.40
2023-03-17T07:12:05.050Z,12.80
2023-03-17T07:14:34.251Z,12.20
2023-03-17T07:17:03.498Z,9.80
2023-03-17T07:19:31.326Z,10.70
2023-03-17T07:21:58.629Z,9.50
2023-03-17T07:24:26.117Z,9.20
2023-03-17T07:26:53.160Z,9.10
2023-03-17T07:29:21.153Z,8.00
2023-03-17T07:31:48.384Z,8.90
2023-03-17T07:34:16.475Z,8.70
2023-03-17T07:36:43.286Z,8.70
2023-03-17T07:39:12.125Z,9.10
2023-03-17T07:41:39.130Z,10.70
2023-03-17T07:44:06.720Z,13.80
2023-03-17T07:46:33.546Z,8.90
2023-03-17T07:49:00.595Z,8.60
2023-03-17T07:51:28.330Z,8.10
2023-03-17T07:54:03.432Z,8.60
2023-03-17T07:56:31.300Z,11.10
2023-03-17T07:58:59.303Z,9.00
2023-03-17T08:01:28.527Z,7.80
2023-03-17T08:03:56.614Z,9.10
2023-03-17T08:06:26.701Z,8.50
2023-03-17T08:08:55.032Z,7.40
2023-03-17T08:11:23.534Z,6.80
2023-03-17T08:13:51.043Z,7.30
2023-03-17T08:16:17.871Z,8.20
2023-03-17T08:18:44.932Z,7.30
2023-03-17T08:21:13.490Z,7.80
2023-03-17T08:23:41.933Z,7.00
2023-03-17T08:26:08.810Z,7.80
2023-03-17T08:28:35.981Z,7.70
2023-03-17T08:31:10.395Z,7.40
2023-03-17T08:33:40.577Z,7.70
2023-03-17T08:36:09.669Z,7.50
2023-03-17T08:38:38.154Z,6.50
2023-03-17T08:41:08.042Z,6.40
2023-03-17T08:43:37.416Z,7.80
2023-03-17T08:46:08.106Z,7.70
2023-03-17T08:48:36.501Z,5.80
2023-03-17T08:51:05.275Z,6.90
2023-03-17T08:53:35.173Z,7.10
2023-03-17T08:56:04.711Z,8.10
2023-03-17T08:58:31.582Z,6.00
2023-03-17T09:01:00.597Z,7.60
2023-03-17T09:03:29.144Z,7.90
2023-03-17T09:05:55.982Z,7.80
2023-03-17T09:08:22.775Z,7.70
2023-03-17T09:10:50.389Z,6.60
2023-03-17T09:13:17.700Z,7.80
2023-03-17T09:15:46.044Z,7.00
2023-03-17T09:18:12.955Z,7.20
2023-03-17T09:20:39.761Z,7.40
2023-03-17T09:23:09.084Z,6.90
2023-03-17T09:25:37.589Z,4.60
2023-03-17T09:28:05.608Z,3.50
2023-03-17T09:30:33.277Z,4.00
2023-03-17T09:33:00.803Z,3.40
2023-03-17T09:35:28.649Z,3.40
2023-03-17T09:37:55.726Z,3.40
2023-03-17T09:40:32.856Z,3.60
2023-03-17T09:43:01.586Z,3.70
2023-03-17T09:45:41.124Z,3.50
2023-03-17T09:48:14.190Z,3.30
2023-03-17T09:51:00.701Z,3.60
2023-03-17T09:53:34.870Z,3.50
2023-03-17T09:56:08.811Z,3.60
2023-03-17T09:58:37.766Z,3.50
2023-03-17T10:01:06.032Z,3.80
2023-03-17T10:03:34.328Z,6.60
2023-03-17T10:06:18.156Z,4.00
2023-03-17T10:08:51.845Z,3.20
2023-03-17T10:11:28.059Z,3.20
2023-03-17T10:14:10.034Z,4.60
2023-03-17T10:16:57.965Z,4.00
2023-03-17T10:19:40.977Z,3.40
2023-03-17T10:22:21.897Z,3.40
2023-03-17T10:24:53.154Z,3.60
2023-03-17T10:27:21.681Z,3.40
2023-03-17T10:29:48.805Z,3.10
2023-03-17T10:32:16.101Z,3.10
2023-03-17T10:34:43.484Z,3.80
2023-03-17T10:37:17.708Z,3.20
2023-03-17T10:39:47.145Z,2.90
2023-03-17T10:42:25.086Z,2.90
2023-03-17T10:45:12.476Z,3.20
2023-03-17T10:47:44.918Z,3.20
2023-03-17T10:50:24.835Z,3.50
2023-03-17T10:52:59.363Z,2.80
2023-03-17T10:55:31.617Z,2.70
2023-03-17T10:58:13.988Z,2.60
2023-03-17T11:00:50.638Z,2.70
2023-03-17T11:03:35.482Z,2.80
2023-03-17T11:06:05.709Z,2.70
2023-03-17T11:08:39.246Z,2.70
2023-03-17T11:11:10.110Z,3.10
2023-03-17T11:13:37.493Z,3.20
2023-03-17T11:16:11.774Z,2.90
2023-03-17T11:18:39.974Z,7.40
2023-03-17T11:21:26.941Z,2.80
2023-03-17T11:24:14.220Z,2.70
2023-03-17T11:26:46.289Z,3.00
2023-03-17T11:29:29.651Z,2.80
2023-03-17T11:32:05.402Z,2.80
2023-03-17T11:34:57.745Z,4.60
2023-03-17T11:37:36.423Z,3.40
2023-03-17T11:40:13.106Z,5.10
2023-03-17T11:42:57.131Z,3.30
2023-03-17T11:45:35.746Z,2.90
2023-03-17T11:48:21.512Z,3.30
2023-03-17T11:51:12.046Z,4.20
2023-03-17T11:53:39.329Z,4.10
2023-03-17T11:56:14.213Z,4.40
2023-03-17T11:58:44.213Z,4.20
2023-03-17T12:01:18.189Z,4.80
2023-03-17T12:06:25.976Z,4.80
2023-03-17T12:09:01.640Z,5.00
2023-03-17T12:11:31.754Z,4.80
2023-03-17T12:13:59.569Z,5.80
2023-03-17T12:16:27.695Z,4.90
2023-03-17T12:19:16.705Z,6.10
2023-03-17T12:22:06.689Z,4.70
2023-03-17T12:24:41.186Z,4.60
2023-03-17T12:27:09.181Z,4.30
2023-03-17T12:29:47.486Z,5.50
2023-03-17T12:32:26.477Z,5.90
2023-03-17T12:34:59.928Z,4.80
2023-03-17T12:37:30.182Z,4.10
2023-03-17T12:40:05.495Z,5.00
2023-03-17T12:42:47.433Z,5.00
2023-03-17T12:45:45.679Z,4.00
2023-03-17T12:48:48.564Z,3.10
2023-03-17T12:51:32.249Z,3.90
2023-03-17T12:54:00.309Z,3.60
2023-03-17T12:56:31.887Z,3.80
2023-03-17T12:59:04.555Z,4.00
2023-03-17T13:01:34.792Z,3.80
2023-03-17T13:04:06.114Z,3.90
2023-03-17T13:06:41.403Z,3.80
2023-03-17T13:09:39.619Z,5.00
2023-03-17T13:12:07.156Z,4.00
2023-03-17T13:14:45.887Z,3.70
2023-03-17T13:17:28.802Z,4.00
2023-03-17T13:19:55.534Z,5.70
2023-03-17T13:22:22.425Z,3.60
2023-03-17T13:24:51.912Z,5.30
2023-03-17T13:27:34.676Z,4.50
2023-03-17T13:30:26.895Z,3.60
2023-03-17T13:33:10.304Z,3.80
2023-03-17T13:35:41.810Z,3.70
2023-03-17T13:38:13.161Z,4.10
2023-03-17T13:40:49.856Z,3.40
2023-03-17T13:43:16.660Z,3.50
2023-03-17T13:45:45.893Z,3.70
2023-03-17T13:48:33.716Z,3.80
2023-03-17T13:51:15.460Z,3.80
2023-03-17T13:53:47.202Z,4.20
2023-03-17T13:56:36.879Z,4.30
2023-03-17T13:59:05.244Z,5.80
2023-03-17T14:01:39.166Z,7.80
2023-03-17T14:04:13.019Z,3.90
2023-03-17T14:06:40.415Z,3.50
2023-03-17T14:09:16.721Z,3.10
2023-03-17T14:11:47.212Z,3.10
2023-03-17T14:14:37.090Z,3.60
2023-03-17T14:17:25.807Z,3.40
2023-03-17T14:20:02.036Z,4.30
2023-03-17T14:22:28.833Z,6.40
2023-03-17T14:24:59.565Z,5.50
2023-03-17T14:27:27.487Z,4.90
2023-03-17T14:29:54.530Z,3.90
2023-03-17T14:32:26.492Z,3.70
2023-03-17T14:34:57.409Z,4.90
2023-03-17T14:37:25.477Z,5.10
2023-03-17T14:39:55.257Z,5.00
2023-03-17T14:42:28.366Z,3.70
2023-03-17T14:45:26.049Z,2.70
2023-03-17T14:47:53.065Z,4.10
2023-03-17T14:50:27.497Z,6.20
2023-03-17T14:52:57.644Z,4.90
2023-03-17T14:55:35.845Z,4.00
2023-03-17T14:58:09.275Z,3.80
2023-03-17T15:00:43.451Z,4.10
2023-03-17T15:03:21.033Z,4.60
2023-03-17T15:05:48.923Z,3.70
2023-03-17T15:08:35.792Z,4.00
2023-03-17T15:11:04.990Z,3.50
2023-03-17T15:13:36.482Z,3.30
2023-03-17T15:16:16.444Z,3.60
2023-03-17T15:18:43.932Z,3.50
2023-03-17T15:21:29.858Z,3.40
2023-03-17T15:23:56.817Z,3.60
2023-03-17T15:26:31.466Z,4.30
2023-03-17T15:29:00.552Z,4.10
2023-03-17T15:31:30.257Z,4.20
2023-03-17T15:33:58.019Z,6.10
2023-03-17T15:36:32.608Z,4.70
2023-03-17T15:39:01.355Z,4.90
2023-03-17T15:41:28.362Z,4.70
2023-03-17T15:43:55.494Z,4.20
2023-03-17T15:46:27.459Z,4.10
2023-03-17T15:48:54.396Z,4.00
2023-03-17T15:51:22.088Z,4.10
2023-03-17T15:53:49.284Z,4.40
2023-03-17T15:56:19.600Z,4.40
2023-03-17T15:58:49.285Z,4.20
2023-03-17T16:01:16.794Z,4.70
2023-03-17T16:03:45.504Z,5.00
2023-03-17T16:06:18.487Z,4.90
2023-03-17T16:08:45.848Z,5.00
2023-03-17T16:11:19.322Z,5.10
2023-03-17T16:13:47.717Z,4.90
2023-03-17T16:16:21.631Z,4.90
2023-03-17T16:21:19.318Z,4.90
2023-03-17T16:23:47.213Z,4.90
2023-03-17T16:26:16.757Z,4.60
2023-03-17T16:28:45.644Z,5.40
2023-03-17T16:31:22.525Z,5.60
2023-03-17T16:33:51.255Z,4.90
2023-03-17T16:36:19.612Z,5.60
2023-03-17T16:38:47.407Z,5.50
2023-03-17T16:41:19.582Z,5.60
2023-03-17T16:43:51.319Z,4.50
2023-03-17T16:46:20.743Z,4.30
2023-03-17T16:48:49.597Z,6.20
2023-03-17T16:51:17.054Z,8.90
2023-03-17T16:53:44.567Z,7.40
2023-03-17T16:56:21.499Z,11.60
2023-03-17T16:58:49.339Z,15.20
2023-03-17T17:01:19.935Z,15.90
2023-03-17T17:03:47.688Z,13.40
2023-03-17T17:06:15.640Z,13.00
2023-03-17T17:08:47.341Z,11.80
2023-03-17T17:11:15.590Z,8.40
2023-03-17T17:13:44.991Z,9.00
2023-03-17T17:16:22.959Z,9.70
2023-03-17T17:18:49.833Z,6.60
2023-03-17T17:21:16.778Z,6.50
2023-03-17T17:23:43.802Z,9.20
2023-03-17T17:26:11.243Z,8.60
2023-03-17T17:28:40.132Z,7.70
2023-03-17T17:31:08.925Z,6.40
2023-03-17T17:33:37.194Z,8.30
2023-03-17T17:36:06.180Z,6.20
2023-03-17T17:38:33.276Z,11.00
2023-03-17T17:41:07.027Z,11.00
2023-03-17T17:43:36.080Z,8.20
2023-03-17T17:46:04.407Z,9.10
2023-03-17T17:48:33.082Z,7.10
2023-03-17T17:51:00.676Z,10.00
2023-03-17T17:53:27.518Z,9.70
2023-03-17T17:55:54.272Z,9.50
2023-03-17T17:58:24.027Z,7.40
2023-03-17T18:00:52.694Z,9.10
2023-03-17T18:03:24.620Z,9.20
2023-03-17T18:05:53.379Z,8.80
2023-03-17T18:08:20.628Z,8.20
2023-03-17T18:10:48.877Z,6.10
2023-03-17T18:13:17.236Z,13.30
2023-03-17T18:15:44.980Z,11.80
2023-03-17T18:18:12.270Z,12.50
2023-03-17T18:20:39.137Z,14.00
2023-03-17T18:23:06.193Z,11.70
2023-03-17T18:25:32.999Z,10.30
2023-03-17T18:28:01.470Z,17.60
2023-03-17T18:30:31.680Z,15.30
2023-03-17T18:33:05.435Z,10.30
2023-03-17T18:35:32.362Z,14.40
2023-03-17T18:38:00.101Z,11.10
2023-03-17T18:40:26.964Z,11.50
2023-03-17T18:42:54.258Z,7.20
2023-03-17T18:45:21.037Z,9.90
2023-03-17T18:47:48.123Z,8.10
2023-03-17T18:50:16.442Z,8.10
2023-03-17T18:52:44.981Z,8.10
2023-03-17T18:55:28.699Z,7.60
2023-03-17T18:57:55.732Z,9.40
2023-03-17T19:00:25.356Z,6.50
2023-03-17T19:03:08.261Z,8.80
2023-03-17T19:05:38.093Z,7.20
2023-03-17T19:08:05.550Z,7.60
2023-03-17T19:10:33.279Z,7.50
2023-03-17T19:13:00.504Z,6.80
2023-03-17T19:15:27.329Z,6.90
2023-03-17T19:17:54.167Z,5.70
2023-03-17T19:20:38.176Z,7.10
2023-03-17T19:23:04.956Z,6.90
2023-03-17T19:25:31.692Z,6.70
2023-03-17T19:27:59.197Z,9.00
2023-03-17T19:30:26.041Z,5.30
2023-03-17T19:32:52.915Z,6.00
2023-03-17T19:35:19.692Z,16.30
2023-03-17T19:37:47.085Z,17.90
2023-03-17T19:40:14.342Z,14.30
2023-03-17T19:42:41.262Z,13.40
2023-03-17T19:45:08.721Z,20.50
2023-03-17T19:47:36.191Z,19.90
2023-03-17T19:50:03.206Z,15.00
2023-03-17T19:52:46.304Z,13.00
2023-03-17T19:55:13.302Z,10.80
2023-03-17T19:57:40.045Z,13.00
2023-03-17T20:00:09.844Z,8.50
2023-03-17T20:02:37.830Z,8.30
2023-03-17T20:05:05.561Z,9.60
2023-03-17T20:07:47.903Z,9.30
2023-03-17T20:10:30.810Z,5.10
2023-03-17T20:12:57.708Z,7.60
2023-03-17T20:15:24.479Z,7.00
2023-03-17T20:17:51.276Z,7.30
2023-03-17T20:20:18.195Z,7.40
2023-03-17T20:22:45.286Z,5.80
2023-03-17T20:25:27.660Z,7.40
2023-03-17T20:27:55.228Z,7.40
2023-03-17T20:30:22.709Z,7.50
2023-03-17T20:32:49.667Z,8.10
2023-03-17T20:35:16.471Z,8.00
2023-03-17T20:37:43.518Z,7.80
2023-03-17T20:40:26.463Z,8.30
2023-03-17T20:42:53.716Z,8.00
2023-03-17T20:45:38.021Z,8.30
2023-03-17T20:48:06.229Z,8.70
2023-03-17T20:50:34.513Z,12.70
2023-03-17T20:53:01.775Z,9.20
2023-03-17T20:55:30.213Z,8.90
2023-03-17T20:57:58.887Z,8.10
2023-03-17T21:00:26.335Z,9.70
2023-03-17T21:02:53.307Z,9.20
2023-03-17T21:05:24.487Z,11.30
2023-03-17T21:07:51.991Z,11.70
2023-03-17T21:10:19.843Z,11.00
2023-03-17T21:12:46.867Z,9.40
2023-03-17T21:15:14.171Z,9.70
2023-03-17T21:17:42.332Z,10.50
2023-03-17T21:20:12.622Z,10.80
2023-03-17T21:22:40.427Z,9.30
2023-03-17T21:25:09.129Z,9.20
2023-03-17T21:27:37.817Z,9.90
2023-03-17T21:30:06.806Z,9.60
2023-03-17T21:32:33.655Z,9.50
2023-03-17T21:35:00.538Z,9.90
2023-03-17T21:37:27.667Z,11.80
2023-03-17T21:39:54.424Z,13.90
2023-03-17T21:42:21.318Z,12.20
2023-03-17T21:44:48.520Z,11.20
2023-03-17T21:47:15.823Z,10.00
2023-03-17T21:49:42.707Z,10.70
2023-03-17T21:52:09.582Z,9.40
2023-03-17T21:54:37.206Z,10.20
2023-03-17T21:57:04.847Z,9.60
2023-03-17T21:59:34.335Z,9.70
2023-03-17T22:02:02.402Z,10.20
2023-03-17T22:04:29.294Z,10.20
2023-03-17T22:06:56.443Z,10.20
2023-03-17T22:09:23.187Z,10.20
2023-03-17T22:11:50.129Z,10.60
2023-03-17T22:14:20.129Z,10.00
2023-03-17T22:16:48.866Z,10.00
2023-03-17T22:19:17.085Z,10.20
2023-03-17T22:21:44.693Z,10.80
2023-03-17T22:24:12.703Z,10.90
2023-03-17T22:26:39.620Z,10.90
2023-03-17T22:29:06.435Z,10.50
2023-03-17T22:31:35.459Z,10.50
2023-03-17T22:34:03.146Z,10.40
2023-03-17T22:36:30.658Z,10.70
2023-03-17T22:38:58.397Z,10.20
2023-03-17T22:41:27.853Z,10.50
2023-03-17T22:43:55.024Z,10.50
2023-03-17T22:46:22.219Z,10.70
2023-03-17T22:48:49.435Z,10.10
2023-03-17T22:51:20.086Z,10.70
2023-03-17T22:53:47.579Z,11.50
2023-03-17T22:56:16.513Z,10.00
2023-03-17T22:58:44.469Z,10.40
2023-03-17T23:01:12.388Z,11.30
2023-03-17T23:03:40.320Z,10.40
2023-03-17T23:06:08.632Z,11.00
2023-03-17T23:08:38.490Z,10.10
2023-03-17T23:11:08.671Z,9.90
2023-03-17T23:13:36.427Z,11.00
2023-03-17T23:16:04.851Z,12.20
2023-03-17T23:18:32.315Z,12.80
2023-03-17T23:21:00.771Z,11.80
2023-03-17T23:23:28.197Z,11.40
2023-03-17T23:25:55.035Z,12.00
2023-03-17T23:28:22.102Z,12.40
2023-03-17T23:30:48.897Z,12.80
2023-03-17T23:33:17.503Z,13.90
2023-03-17T23:35:46.056Z,15.20
2023-03-17T23:38:13.563Z,14.80
2023-03-17T23:40:41.317Z,14.80
2023-03-17T23:43:08.098Z,15.10
2023-03-17T23:45:35.505Z,13.90
2023-03-17T23:48:02.971Z,11.70
2023-03-17T23:50:30.252Z,10.90
2023-03-17T23:52:57.671Z,11.40
2023-03-17T23:55:25.076Z,10.60
2023-03-17T23:57:52.238Z,10.40
